Ely Airport Yelland Field
KELY : now visible

Airfield :











YOU CAN JOIN US ON...

 
LOGIN :

Register | Disclaimer

   EN    FR    IT 

 









Legend :    VFR   Marginal VFR   IFR   Intensive IFR   Very Intensive IFR
Visi :
Ceiling :
>= 8 km
>= 3000ft
5 to 8 km
1000 to 3000 ft
1500m to 5 km
500 to 1000 ft
800 to 1500m
200 to 500 ft
< 800m
< 200 ft
Symbols :   Thunderstorms  Fog  Heavy snow  Heavy precipitations  Wind > 20 kt







- Airport Elevation : 6259 ft


KELY - Ely Yelland Field

CURRENT METAR :
  • 250953Z AUTO VRB03KT 10SM CLR 09/M01 A3001 RMK AO2 SLP071 T00891006

EXPIRED METARs :
  • 250853Z AUTO 16004KT 10SM CLR 09/M01 A3001 RMK AO2 SLP070 T00891011 52001
  • 250753Z AUTO 11005KT 10SM CLR 10/M01 A3001 RMK AO2 SLP069 T01001006 402720033

TAF KELY
Valid from the 25 at 06:00 until the 26 at 06:00 UTC


250520Z 2506/2606 18009KT P6SM FEW120 BKN150
FM251700 19015G25KT P6SM FEW120 BKN150
FM252000 20020G30KT P6SM FEW120 BKN150
FM260300 18010G20KT P6SM FEW120 BKN150
KZLC FIR / North America



MET'MAP, your aeronautical weather chart ! - Copyright ORBIFLY December 2007 - Disclaimer

ORBIFLY MET'MAP TEAM :

Programming & Development : Alexandra Zaïnal
Concept & Development : Baudouin d'Aumeries
Co-Development & Prog : Marc-Olivier Méhu
Technical & hardware support : Manuel Goepfert

Contact : metmap@orbifly.com




SOURCES & CREDITS :

   NOAA       Earth
Advisory